Time;durP1;ratioP1;P1;durP2;ratioP2;P2;SDS_P1;SDS_P2;PMS_P1;PMS_P2;Temp;Humidity;BMP_temperature;BMP_pressure;BME280_temperature;BME280_humidity;BME280_pressure;Samples;Min_cycle;Max_cycle;Signal;HPM_P1;HPM_P2
2023/09/15 20:50:58;;;;;;;0.50;0.50;;;;;;;23.61;43.76;101416.47;4787829;29;20483;-87
2023/09/15 20:53:25;;;;;;;0.13;0.13;;;;;;;23.59;43.85;101413.19;4786797;30;20424;-87
2023/09/15 20:55:50;;;;;;;0.10;0.10;;;;;;;23.61;43.94;101421.88;4785373;30;20419;-86
2023/09/15 20:58:17;;;;;;;0.20;0.20;;;;;;;23.62;43.77;101420.81;4786787;29;20412;-88
2023/09/15 21:00:44;;;;;;;0.10;0.10;;;;;;;23.61;43.75;101420.00;4786339;30;20412;-86
2023/09/15 21:03:11;;;;;;;0.20;0.20;;;;;;;23.65;43.74;101429.25;4785461;29;20408;-86
2023/09/15 21:05:36;;;;;;;0.10;0.10;;;;;;;23.59;43.64;101427.53;4794100;29;20414;-86
2023/09/15 21:08:02;;;;;;;0.10;0.10;;;;;;;23.57;43.90;101421.53;4780290;30;20429;-86
2023/09/15 21:10:32;;;;;;;0.13;0.13;;;;;;;23.52;43.80;101421.44;4789904;29;20426;-89
2023/09/15 21:13:00;;;;;;;0.13;0.13;;;;;;;23.37;44.57;101419.25;4774560;29;20438;-87
2023/09/15 21:15:25;;;;;;;0.20;0.20;;;;;;;23.09;45.26;101419.97;4781382;30;20423;-87
2023/09/15 21:17:51;;;;;;;0.20;0.20;;;;;;;23.04;45.50;101419.81;4781289;29;20409;-86
2023/09/15 21:20:18;;;;;;;0.10;0.10;;;;;;;22.78;46.52;101419.25;4785482;29;20420;-87
2023/09/15 21:22:49;;;;;;;0.20;0.20;;;;;;;22.49;47.10;101421.78;4791596;29;20428;-87
2023/09/15 21:25:15;;;;;;;0.20;0.20;;;;;;;22.57;46.87;101422.50;4795822;29;20417;-89
2023/09/15 21:27:41;;;;;;;0.17;0.17;;;;;;;22.48;46.87;101416.63;4796094;30;20914;-85
2023/09/15 21:30:08;;;;;;;0.10;0.10;;;;;;;22.37;47.08;101425.53;4784121;30;20405;-86
2023/09/15 21:32:33;;;;;;;0.17;0.17;;;;;;;22.28;47.34;101417.75;4768556;30;20430;-87
2023/09/15 21:34:59;;;;;;;0.20;0.20;;;;;;;22.19;47.55;101413.69;4766854;30;20461;-86
2023/09/15 21:37:24;;;;;;;0.20;0.20;;;;;;;22.11;47.90;101414.84;4768317;30;20414;-87
2023/09/15 21:39:50;;;;;;;0.10;0.10;;;;;;;22.13;48.08;101409.22;4766218;30;20422;-87
2023/09/15 21:42:17;;;;;;;0.10;0.10;;;;;;;22.10;48.07;101404.28;4767625;30;20851;-88
2023/09/15 21:44:44;;;;;;;0.20;0.20;;;;;;;22.05;48.44;101407.66;4780317;30;20505;-87
2023/09/15 21:47:12;;;;;;;0.20;0.20;;;;;;;22.07;48.40;101408.25;4781612;30;20425;-85
2023/09/15 21:49:38;;;;;;;0.20;0.20;;;;;;;22.10;47.95;101404.28;4781391;30;20449;-86
2023/09/15 21:52:09;;;;;;;0.10;0.10;;;;;;;22.24;47.45;101408.44;4767712;30;20418;-87
2023/09/15 21:54:34;;;;;;;0.20;0.20;;;;;;;22.35;47.18;101414.94;4770186;30;20436;-86
2023/09/15 21:57:00;;;;;;;0.10;0.10;;;;;;;22.44;46.92;101418.97;4779526;30;20423;-87
2023/09/15 21:59:26;;;;;;;0.05;0.05;;;;;;;22.47;46.73;101421.19;4777601;30;20459;-87
2023/09/15 22:01:54;;;;;;;0.20;0.20;;;;;;;22.37;47.02;101420.94;4775376;30;20440;-88
2023/09/15 22:04:23;;;;;;;0.25;0.25;;;;;;;22.30;47.35;101409.41;4776199;30;20416;-90
2023/09/15 22:06:48;;;;;;;0.20;0.20;;;;;;;22.29;47.46;101407.75;4777001;30;20477;-88
2023/09/15 22:09:14;;;;;;;0.20;0.20;;;;;;;22.20;47.77;101412.66;4777150;30;20453;-89
2023/09/15 22:11:40;;;;;;;0.20;0.20;;;;;;;22.07;48.50;101402.84;4778728;30;20420;-87
2023/09/15 22:14:18;;;;;;;0.10;0.10;;;;;;;21.92;48.89;101402.47;4775751;30;20431;-88
2023/09/15 22:16:43;;;;;;;0.30;0.30;;;;;;;21.79;49.30;101411.56;4778615;30;20417;-88
2023/09/15 22:19:11;;;;;;;0.30;0.20;;;;;;;21.65;49.34;101416.28;4777413;29;20406;-88
2023/09/15 22:21:40;;;;;;;0.20;0.20;;;;;;;21.68;49.34;101415.84;4779900;29;20438;-89
2023/09/15 22:24:07;;;;;;;0.20;0.20;;;;;;;21.74;48.89;101411.41;4777280;30;20414;-88
2023/09/15 22:26:35;;;;;;;0.20;0.20;;;;;;;21.89;48.47;101411.00;4778809;29;20453;-86
2023/09/15 22:29:01;;;;;;;0.13;0.13;;;;;;;21.94;48.10;101400.34;4761335;30;20436;-87
2023/09/15 22:31:27;;;;;;;0.10;0.10;;;;;;;22.04;47.98;101406.03;4778306;30;20452;-88
2023/09/15 22:33:56;;;;;;;0.28;0.28;;;;;;;22.12;47.84;101405.69;4778045;30;20849;-88
2023/09/15 22:36:24;;;;;;;0.20;0.20;;;;;;;22.15;47.55;101404.41;4777057;30;20432;-87
2023/09/15 22:38:52;;;;;;;0.30;0.30;;;;;;;22.14;47.44;101405.47;4775872;30;20930;-88
2023/09/15 22:41:18;;;;;;;0.20;0.20;;;;;;;22.18;47.41;101403.94;4777271;30;20426;-87
2023/09/15 22:43:45;;;;;;;0.28;0.28;;;;;;;22.19;47.59;101399.38;4776309;30;20413;-87
2023/09/15 22:46:22;;;;;;;0.20;0.20;;;;;;;22.17;47.37;101401.50;4778495;29;20407;-89
2023/09/15 22:48:52;;;;;;;0.10;0.10;;;;;;;22.03;47.67;101395.44;4777236;30;20489;-86
2023/09/15 22:51:18;;;;;;;0.15;0.15;;;;;;;22.03;47.61;101398.97;4779149;29;20465;-86
2023/09/15 22:53:44;;;;;;;0.10;0.10;;;;;;;22.10;47.47;101406.97;4780410;30;20408;-86
2023/09/15 22:56:10;;;;;;;0.20;0.20;;;;;;;22.09;47.67;101405.31;4777202;30;20416;-86
2023/09/15 22:58:35;;;;;;;1.90;0.40;;;;;;;22.01;47.95;101406.47;4773742;30;20414;-85
2023/09/15 23:01:01;;;;;;;0.20;0.20;;;;;;;21.96;48.53;101415.25;4775891;29;20422;-86
2023/09/15 23:03:31;;;;;;;0.20;0.20;;;;;;;21.86;48.86;101412.28;4783623;29;20931;-85
2023/09/15 23:05:57;;;;;;;0.20;0.20;;;;;;;21.83;49.09;101415.44;4776387;30;20426;-86
2023/09/15 23:08:22;;;;;;;0.10;0.10;;;;;;;21.89;48.85;101411.00;4774760;30;20410;-86
2023/09/15 23:10:48;;;;;;;0.13;0.13;;;;;;;22.00;48.37;101412.91;4779273;29;20408;-87
2023/09/15 23:13:13;;;;;;;0.20;0.20;;;;;;;22.04;48.07;101411.44;4775508;30;20431;-85
2023/09/15 23:15:43;;;;;;;0.20;0.20;;;;;;;22.02;48.16;101407.28;4779819;30;20406;-88
2023/09/15 23:18:08;;;;;;;0.20;0.20;;;;;;;22.00;48.12;101410.22;4782650;30;20440;-88
2023/09/15 23:20:37;;;;;;;0.10;0.10;;;;;;;21.95;48.12;101410.91;4788893;29;21265;-89
2023/09/15 23:23:08;;;;;;;0.30;0.30;;;;;;;21.96;48.06;101401.75;4777901;29;20432;-88
2023/09/15 23:25:34;;;;;;;0.20;0.20;;;;;;;21.89;48.61;101413.69;4776274;29;20920;-89
2023/09/15 23:28:01;;;;;;;0.20;0.20;;;;;;;21.70;49.69;101424.53;4783991;30;20428;-87
2023/09/15 23:30:28;;;;;;;0.20;0.20;;;;;;;21.44;50.26;101422.94;4780785;30;20836;-88
2023/09/15 23:32:54;;;;;;;0.20;0.20;;;;;;;21.42;50.40;101416.94;4779063;29;20408;-89
2023/09/15 23:35:19;;;;;;;0.28;0.28;;;;;;;21.47;50.43;101429.78;4773852;30;20437;-89
2023/09/15 23:37:45;;;;;;;0.10;0.10;;;;;;;21.32;50.72;101424.72;4774538;29;20864;-87
2023/09/15 23:40:12;;;;;;;0.20;0.20;;;;;;;21.35;50.36;101408.09;4781526;30;20483;-88
2023/09/15 23:42:38;;;;;;;0.20;0.20;;;;;;;21.35;50.49;101414.31;4778042;30;20446;-88
2023/09/15 23:45:04;;;;;;;0.40;0.38;;;;;;;21.39;50.42;101417.38;4761313;30;20469;-87
2023/09/15 23:47:29;;;;;;;0.20;0.20;;;;;;;21.42;50.31;101418.81;4774145;30;20444;-88
2023/09/15 23:49:55;;;;;;;0.20;0.20;;;;;;;21.30;50.33;101416.88;4782627;30;20454;-90
2023/09/15 23:52:21;;;;;;;0.40;0.40;;;;;;;21.13;50.96;101410.41;4786293;30;20424;-86
2023/09/15 23:54:47;;;;;;;0.20;0.20;;;;;;;20.98;51.30;101421.56;4778312;30;20866;-85
2023/09/15 23:57:12;;;;;;;0.20;0.20;;;;;;;20.97;51.40;101423.41;4776644;30;20430;-86
2023/09/15 23:59:38;;;;;;;0.22;0.22;;;;;;;21.03;51.14;101421.72;4778456;29;20414;-87
